sensor_id;sensor_type;location;lat;lon;timestamp;P1;durP1;ratioP1;P2;durP2;ratioP2
42084;SDS011;27746;52.228;20.890;2022-12-18T00:00:48;40.95;;;18.15;;
42084;SDS011;27746;52.228;20.890;2022-12-18T00:03:15;44.97;;;18.33;;
42084;SDS011;27746;52.228;20.890;2022-12-18T00:05:48;44.08;;;18.33;;
42084;SDS011;27746;52.228;20.890;2022-12-18T00:08:16;38.08;;;17.27;;
42084;SDS011;27746;52.228;20.890;2022-12-18T00:10:43;42.10;;;18.85;;
42084;SDS011;27746;52.228;20.890;2022-12-18T00:13:11;39.45;;;18.00;;
42084;SDS011;27746;52.228;20.890;2022-12-18T00:15:38;42.08;;;19.40;;
42084;SDS011;27746;52.228;20.890;2022-12-18T00:18:07;39.40;;;18.77;;
42084;SDS011;27746;52.228;20.890;2022-12-18T00:20:35;41.70;;;18.05;;
42084;SDS011;27746;52.228;20.890;2022-12-18T00:23:03;38.40;;;17.73;;
42084;SDS011;27746;52.228;20.890;2022-12-18T00:25:32;41.70;;;17.58;;
42084;SDS011;27746;52.228;20.890;2022-12-18T00:27:59;43.45;;;17.73;;
42084;SDS011;27746;52.228;20.890;2022-12-18T00:30:26;40.20;;;18.40;;
42084;SDS011;27746;52.228;20.890;2022-12-18T00:32:53;40.20;;;18.52;;
42084;SDS011;27746;52.228;20.890;2022-12-18T00:35:21;39.15;;;16.92;;
42084;SDS011;27746;52.228;20.890;2022-12-18T00:37:48;44.90;;;19.23;;
42084;SDS011;27746;52.228;20.890;2022-12-18T00:40:15;38.45;;;18.55;;
42084;SDS011;27746;52.228;20.890;2022-12-18T00:42:42;40.83;;;16.92;;
42084;SDS011;27746;52.228;20.890;2022-12-18T00:45:22;41.83;;;17.73;;
42084;SDS011;27746;52.228;20.890;2022-12-18T00:47:50;39.58;;;16.88;;
42084;SDS011;27746;52.228;20.890;2022-12-18T00:50:17;41.70;;;18.10;;
42084;SDS011;27746;52.228;20.890;2022-12-18T00:52:45;43.40;;;17.92;;
42084;SDS011;27746;52.228;20.890;2022-12-18T00:55:12;45.40;;;17.35;;
42084;SDS011;27746;52.228;20.890;2022-12-18T00:57:39;42.75;;;19.73;;
42084;SDS011;27746;52.228;20.890;2022-12-18T01:00:07;39.35;;;16.52;;
42084;SDS011;27746;52.228;20.890;2022-12-18T01:02:35;42.60;;;16.90;;
42084;SDS011;27746;52.228;20.890;2022-12-18T01:05:02;38.85;;;16.75;;
42084;SDS011;27746;52.228;20.890;2022-12-18T01:07:30;38.40;;;16.55;;
42084;SDS011;27746;52.228;20.890;2022-12-18T01:09:58;38.85;;;18.02;;
42084;SDS011;27746;52.228;20.890;2022-12-18T01:12:25;44.47;;;17.15;;
42084;SDS011;27746;52.228;20.890;2022-12-18T01:14:52;39.22;;;17.08;;
42084;SDS011;27746;52.228;20.890;2022-12-18T01:17:18;36.85;;;17.98;;
42084;SDS011;27746;52.228;20.890;2022-12-18T01:19:45;41.42;;;15.90;;
42084;SDS011;27746;52.228;20.890;2022-12-18T01:22:12;43.55;;;17.52;;
42084;SDS011;27746;52.228;20.890;2022-12-18T01:24:39;41.80;;;17.73;;
42084;SDS011;27746;52.228;20.890;2022-12-18T01:27:07;39.65;;;16.08;;
42084;SDS011;27746;52.228;20.890;2022-12-18T01:29:34;37.88;;;17.58;;
42084;SDS011;27746;52.228;20.890;2022-12-18T01:32:01;37.08;;;16.33;;
42084;SDS011;27746;52.228;20.890;2022-12-18T01:34:27;44.22;;;18.35;;
42084;SDS011;27746;52.228;20.890;2022-12-18T01:36:54;40.55;;;17.00;;
42084;SDS011;27746;52.228;20.890;2022-12-18T01:39:21;37.47;;;15.90;;
42084;SDS011;27746;52.228;20.890;2022-12-18T01:41:48;42.92;;;16.88;;
42084;SDS011;27746;52.228;20.890;2022-12-18T01:47:27;39.72;;;16.48;;
42084;SDS011;27746;52.228;20.890;2022-12-18T01:49:58;34.83;;;17.13;;
42084;SDS011;27746;52.228;20.890;2022-12-18T01:52:28;41.45;;;18.48;;
42084;SDS011;27746;52.228;20.890;2022-12-18T01:54:56;52.38;;;18.95;;
42084;SDS011;27746;52.228;20.890;2022-12-18T01:57:23;44.03;;;17.83;;
42084;SDS011;27746;52.228;20.890;2022-12-18T01:59:52;39.75;;;16.42;;
42084;SDS011;27746;52.228;20.890;2022-12-18T02:02:24;41.92;;;16.67;;
42084;SDS011;27746;52.228;20.890;2022-12-18T02:04:53;40.10;;;16.52;;
42084;SDS011;27746;52.228;20.890;2022-12-18T02:07:23;42.38;;;18.33;;
42084;SDS011;27746;52.228;20.890;2022-12-18T02:09:59;45.00;;;17.67;;
42084;SDS011;27746;52.228;20.890;2022-12-18T02:12:30;37.00;;;15.70;;
42084;SDS011;27746;52.228;20.890;2022-12-18T02:15:05;46.15;;;17.55;;
42084;SDS011;27746;52.228;20.890;2022-12-18T02:17:41;39.92;;;16.23;;
42084;SDS011;27746;52.228;20.890;2022-12-18T02:20:13;46.75;;;18.55;;
42084;SDS011;27746;52.228;20.890;2022-12-18T02:22:46;41.38;;;16.85;;
42084;SDS011;27746;52.228;20.890;2022-12-18T02:25:29;42.53;;;17.13;;
42084;SDS011;27746;52.228;20.890;2022-12-18T02:28:11;46.80;;;17.88;;
42084;SDS011;27746;52.228;20.890;2022-12-18T02:30:41;38.88;;;15.80;;
42084;SDS011;27746;52.228;20.890;2022-12-18T02:33:10;41.15;;;17.42;;
42084;SDS011;27746;52.228;20.890;2022-12-18T02:35:38;40.13;;;18.23;;
42084;SDS011;27746;52.228;20.890;2022-12-18T02:38:07;43.47;;;17.48;;
42084;SDS011;27746;52.228;20.890;2022-12-18T02:40:33;43.72;;;17.50;;
42084;SDS011;27746;52.228;20.890;2022-12-18T02:43:02;44.20;;;16.55;;
42084;SDS011;27746;52.228;20.890;2022-12-18T02:45:34;40.17;;;17.85;;
42084;SDS011;27746;52.228;20.890;2022-12-18T02:48:01;43.50;;;18.60;;
42084;SDS011;27746;52.228;20.890;2022-12-18T02:50:30;45.28;;;16.85;;
42084;SDS011;27746;52.228;20.890;2022-12-18T02:53:03;45.50;;;17.87;;
42084;SDS011;27746;52.228;20.890;2022-12-18T02:55:39;45.30;;;17.65;;
42084;SDS011;27746;52.228;20.890;2022-12-18T02:58:17;35.88;;;16.70;;
42084;SDS011;27746;52.228;20.890;2022-12-18T03:00:51;37.90;;;17.80;;
42084;SDS011;27746;52.228;20.890;2022-12-18T03:03:22;41.33;;;16.60;;
42084;SDS011;27746;52.228;20.890;2022-12-18T03:05:55;42.65;;;16.90;;
42084;SDS011;27746;52.228;20.890;2022-12-18T03:08:27;38.80;;;16.17;;
42084;SDS011;27746;52.228;20.890;2022-12-18T03:10:55;43.53;;;16.83;;
42084;SDS011;27746;52.228;20.890;2022-12-18T03:13:26;40.70;;;20.52;;
42084;SDS011;27746;52.228;20.890;2022-12-18T03:15:59;38.50;;;17.75;;
42084;SDS011;27746;52.228;20.890;2022-12-18T03:18:29;39.20;;;18.23;;
42084;SDS011;27746;52.228;20.890;2022-12-18T03:21:00;46.10;;;19.70;;
42084;SDS011;27746;52.228;20.890;2022-12-18T03:23:32;47.10;;;19.23;;
42084;SDS011;27746;52.228;20.890;2022-12-18T03:26:05;39.08;;;18.40;;
42084;SDS011;27746;52.228;20.890;2022-12-18T03:28:35;42.08;;;17.63;;
42084;SDS011;27746;52.228;20.890;2022-12-18T03:31:07;45.97;;;18.10;;
42084;SDS011;27746;52.228;20.890;2022-12-18T03:33:37;41.70;;;17.15;;
42084;SDS011;27746;52.228;20.890;2022-12-18T03:36:10;42.85;;;17.70;;
42084;SDS011;27746;52.228;20.890;2022-12-18T03:38:37;44.10;;;17.63;;
42084;SDS011;27746;52.228;20.890;2022-12-18T03:41:06;43.75;;;18.25;;
42084;SDS011;27746;52.228;20.890;2022-12-18T03:43:40;39.08;;;17.02;;
42084;SDS011;27746;52.228;20.890;2022-12-18T03:46:14;48.33;;;18.88;;
42084;SDS011;27746;52.228;20.890;2022-12-18T03:48:45;40.60;;;16.98;;
42084;SDS011;27746;52.228;20.890;2022-12-18T03:53:50;42.97;;;17.65;;
42084;SDS011;27746;52.228;20.890;2022-12-18T03:56:21;41.25;;;18.00;;
42084;SDS011;27746;52.228;20.890;2022-12-18T03:58:51;51.58;;;18.75;;
42084;SDS011;27746;52.228;20.890;2022-12-18T04:01:22;46.70;;;17.58;;
42084;SDS011;27746;52.228;20.890;2022-12-18T04:06:20;41.38;;;17.17;;
42084;SDS011;27746;52.228;20.890;2022-12-18T04:08:47;41.67;;;17.80;;
42084;SDS011;27746;52.228;20.890;2022-12-18T04:11:15;46.40;;;19.38;;
42084;SDS011;27746;52.228;20.890;2022-12-18T04:13:41;43.67;;;17.98;;
42084;SDS011;27746;52.228;20.890;2022-12-18T04:16:09;41.50;;;16.88;;
42084;SDS011;27746;52.228;20.890;2022-12-18T04:18:37;44.33;;;17.70;;
42084;SDS011;27746;52.228;20.890;2022-12-18T04:21:05;41.53;;;16.77;;
42084;SDS011;27746;52.228;20.890;2022-12-18T04:23:31;40.05;;;17.30;;
42084;SDS011;27746;52.228;20.890;2022-12-18T04:25:58;46.53;;;16.95;;
42084;SDS011;27746;52.228;20.890;2022-12-18T04:28:25;39.83;;;18.58;;
42084;SDS011;27746;52.228;20.890;2022-12-18T04:30:52;42.60;;;16.77;;
42084;SDS011;27746;52.228;20.890;2022-12-18T04:33:18;52.00;;;20.27;;
42084;SDS011;27746;52.228;20.890;2022-12-18T04:35:47;38.88;;;18.65;;
42084;SDS011;27746;52.228;20.890;2022-12-18T04:38:13;45.53;;;17.27;;
42084;SDS011;27746;52.228;20.890;2022-12-18T04:40:40;40.88;;;17.08;;
42084;SDS011;27746;52.228;20.890;2022-12-18T04:43:07;41.95;;;17.15;;
42084;SDS011;27746;52.228;20.890;2022-12-18T04:45:34;43.72;;;17.42;;
42084;SDS011;27746;52.228;20.890;2022-12-18T04:48:01;45.90;;;18.08;;
42084;SDS011;27746;52.228;20.890;2022-12-18T04:50:29;45.25;;;19.02;;
42084;SDS011;27746;52.228;20.890;2022-12-18T04:52:57;44.05;;;18.35;;
42084;SDS011;27746;52.228;20.890;2022-12-18T04:55:24;41.13;;;17.42;;
42084;SDS011;27746;52.228;20.890;2022-12-18T04:57:51;42.42;;;17.60;;
42084;SDS011;27746;52.228;20.890;2022-12-18T05:00:18;42.00;;;16.90;;
42084;SDS011;27746;52.228;20.890;2022-12-18T05:02:46;40.83;;;17.90;;
42084;SDS011;27746;52.228;20.890;2022-12-18T05:05:12;47.92;;;18.45;;
42084;SDS011;27746;52.228;20.890;2022-12-18T05:07:39;44.13;;;17.55;;
42084;SDS011;27746;52.228;20.890;2022-12-18T05:10:08;49.92;;;19.40;;
42084;SDS011;27746;52.228;20.890;2022-12-18T05:12:35;43.60;;;16.67;;
42084;SDS011;27746;52.228;20.890;2022-12-18T05:15:23;44.42;;;18.52;;
42084;SDS011;27746;52.228;20.890;2022-12-18T05:17:50;45.90;;;18.95;;
42084;SDS011;27746;52.228;20.890;2022-12-18T05:20:17;44.33;;;17.88;;
42084;SDS011;27746;52.228;20.890;2022-12-18T05:22:44;44.15;;;16.92;;
42084;SDS011;27746;52.228;20.890;2022-12-18T05:25:12;46.15;;;18.50;;
42084;SDS011;27746;52.228;20.890;2022-12-18T05:27:39;41.10;;;18.35;;
42084;SDS011;27746;52.228;20.890;2022-12-18T05:30:06;48.42;;;18.95;;
42084;SDS011;27746;52.228;20.890;2022-12-18T05:32:35;47.38;;;18.92;;
42084;SDS011;27746;52.228;20.890;2022-12-18T05:35:04;47.70;;;20.30;;
42084;SDS011;27746;52.228;20.890;2022-12-18T05:37:32;45.28;;;17.58;;
42084;SDS011;27746;52.228;20.890;2022-12-18T05:39:59;45.17;;;18.15;;
42084;SDS011;27746;52.228;20.890;2022-12-18T05:42:27;42.97;;;17.92;;
42084;SDS011;27746;52.228;20.890;2022-12-18T05:44:54;49.22;;;20.10;;
42084;SDS011;27746;52.228;20.890;2022-12-18T05:47:22;46.13;;;18.58;;
42084;SDS011;27746;52.228;20.890;2022-12-18T05:49:49;48.70;;;19.65;;
42084;SDS011;27746;52.228;20.890;2022-12-18T05:52:16;46.13;;;19.63;;
42084;SDS011;27746;52.228;20.890;2022-12-18T05:54:43;42.08;;;17.70;;
42084;SDS011;27746;52.228;20.890;2022-12-18T05:57:09;48.30;;;19.50;;
42084;SDS011;27746;52.228;20.890;2022-12-18T05:59:37;52.60;;;21.08;;
42084;SDS011;27746;52.228;20.890;2022-12-18T06:02:04;55.95;;;22.42;;
42084;SDS011;27746;52.228;20.890;2022-12-18T06:04:31;44.40;;;20.55;;
42084;SDS011;27746;52.228;20.890;2022-12-18T06:06:58;46.60;;;19.73;;
42084;SDS011;27746;52.228;20.890;2022-12-18T06:09:25;49.00;;;20.73;;
42084;SDS011;27746;52.228;20.890;2022-12-18T06:11:53;46.72;;;19.02;;
42084;SDS011;27746;52.228;20.890;2022-12-18T06:14:19;47.17;;;20.73;;
42084;SDS011;27746;52.228;20.890;2022-12-18T06:16:48;46.92;;;20.13;;
42084;SDS011;27746;52.228;20.890;2022-12-18T06:19:16;51.67;;;21.08;;
42084;SDS011;27746;52.228;20.890;2022-12-18T06:21:43;47.45;;;19.48;;
42084;SDS011;27746;52.228;20.890;2022-12-18T06:24:10;49.08;;;19.23;;
42084;SDS011;27746;52.228;20.890;2022-12-18T06:26:37;54.13;;;20.77;;
42084;SDS011;27746;52.228;20.890;2022-12-18T06:29:04;59.08;;;22.98;;
42084;SDS011;27746;52.228;20.890;2022-12-18T06:31:32;48.95;;;20.52;;
42084;SDS011;27746;52.228;20.890;2022-12-18T06:34:00;47.60;;;21.30;;
42084;SDS011;27746;52.228;20.890;2022-12-18T06:36:28;43.63;;;18.10;;
42084;SDS011;27746;52.228;20.890;2022-12-18T06:38:55;55.35;;;20.85;;
42084;SDS011;27746;52.228;20.890;2022-12-18T06:41:22;52.20;;;22.27;;
42084;SDS011;27746;52.228;20.890;2022-12-18T06:43:50;48.45;;;20.10;;
42084;SDS011;27746;52.228;20.890;2022-12-18T06:46:17;56.33;;;22.15;;
42084;SDS011;27746;52.228;20.890;2022-12-18T06:48:46;51.40;;;19.80;;
42084;SDS011;27746;52.228;20.890;2022-12-18T06:51:16;49.83;;;20.27;;
42084;SDS011;27746;52.228;20.890;2022-12-18T06:53:44;49.63;;;20.83;;
42084;SDS011;27746;52.228;20.890;2022-12-18T06:56:10;54.08;;;20.92;;
42084;SDS011;27746;52.228;20.890;2022-12-18T06:58:37;49.83;;;19.52;;
42084;SDS011;27746;52.228;20.890;2022-12-18T07:01:05;51.55;;;20.88;;
42084;SDS011;27746;52.228;20.890;2022-12-18T07:03:33;49.25;;;21.35;;
42084;SDS011;27746;52.228;20.890;2022-12-18T07:06:00;50.00;;;20.17;;
42084;SDS011;27746;52.228;20.890;2022-12-18T07:08:29;49.83;;;20.50;;
42084;SDS011;27746;52.228;20.890;2022-12-18T07:10:56;48.45;;;17.95;;
42084;SDS011;27746;52.228;20.890;2022-12-18T07:13:23;48.50;;;20.70;;
42084;SDS011;27746;52.228;20.890;2022-12-18T07:15:50;50.00;;;19.23;;
42084;SDS011;27746;52.228;20.890;2022-12-18T07:18:17;54.72;;;22.42;;
42084;SDS011;27746;52.228;20.890;2022-12-18T07:20:44;46.90;;;20.83;;
42084;SDS011;27746;52.228;20.890;2022-12-18T07:23:11;46.97;;;20.42;;
42084;SDS011;27746;52.228;20.890;2022-12-18T07:25:39;52.63;;;21.92;;
42084;SDS011;27746;52.228;20.890;2022-12-18T07:28:06;54.58;;;21.25;;
42084;SDS011;27746;52.228;20.890;2022-12-18T07:30:33;59.75;;;22.33;;
42084;SDS011;27746;52.228;20.890;2022-12-18T07:32:59;51.90;;;21.83;;
42084;SDS011;27746;52.228;20.890;2022-12-18T07:35:26;56.00;;;23.67;;
42084;SDS011;27746;52.228;20.890;2022-12-18T07:37:53;46.47;;;19.20;;
42084;SDS011;27746;52.228;20.890;2022-12-18T07:40:20;56.85;;;23.75;;
42084;SDS011;27746;52.228;20.890;2022-12-18T07:42:48;51.92;;;21.48;;
42084;SDS011;27746;52.228;20.890;2022-12-18T07:45:15;64.25;;;24.00;;
42084;SDS011;27746;52.228;20.890;2022-12-18T07:47:42;58.75;;;25.00;;
42084;SDS011;27746;52.228;20.890;2022-12-18T07:50:10;50.75;;;20.73;;
42084;SDS011;27746;52.228;20.890;2022-12-18T07:52:39;53.55;;;20.17;;
42084;SDS011;27746;52.228;20.890;2022-12-18T07:55:06;47.47;;;21.30;;
42084;SDS011;27746;52.228;20.890;2022-12-18T07:57:34;51.10;;;22.15;;
42084;SDS011;27746;52.228;20.890;2022-12-18T08:00:02;48.88;;;19.83;;
42084;SDS011;27746;52.228;20.890;2022-12-18T08:02:30;52.42;;;22.23;;
42084;SDS011;27746;52.228;20.890;2022-12-18T08:04:57;45.60;;;19.13;;
42084;SDS011;27746;52.228;20.890;2022-12-18T08:07:24;54.80;;;21.60;;
42084;SDS011;27746;52.228;20.890;2022-12-18T08:09:51;50.00;;;20.17;;
42084;SDS011;27746;52.228;20.890;2022-12-18T08:12:17;50.58;;;20.05;;
42084;SDS011;27746;52.228;20.890;2022-12-18T08:14:44;52.60;;;21.23;;
42084;SDS011;27746;52.228;20.890;2022-12-18T08:17:12;52.05;;;21.33;;
42084;SDS011;27746;52.228;20.890;2022-12-18T08:19:39;65.88;;;27.85;;
42084;SDS011;27746;52.228;20.890;2022-12-18T08:22:06;51.08;;;21.27;;
42084;SDS011;27746;52.228;20.890;2022-12-18T08:24:33;55.33;;;20.85;;
42084;SDS011;27746;52.228;20.890;2022-12-18T08:27:00;55.35;;;20.92;;
42084;SDS011;27746;52.228;20.890;2022-12-18T08:29:27;49.17;;;21.40;;
42084;SDS011;27746;52.228;20.890;2022-12-18T08:31:55;51.20;;;21.13;;
42084;SDS011;27746;52.228;20.890;2022-12-18T08:34:23;50.67;;;21.00;;
42084;SDS011;27746;52.228;20.890;2022-12-18T08:36:50;55.38;;;21.88;;
42084;SDS011;27746;52.228;20.890;2022-12-18T08:39:17;51.25;;;20.33;;
42084;SDS011;27746;52.228;20.890;2022-12-18T08:41:44;45.80;;;20.27;;
42084;SDS011;27746;52.228;20.890;2022-12-18T08:44:32;52.75;;;21.17;;
42084;SDS011;27746;52.228;20.890;2022-12-18T08:47:04;49.70;;;19.67;;
42084;SDS011;27746;52.228;20.890;2022-12-18T08:49:32;48.80;;;19.88;;
42084;SDS011;27746;52.228;20.890;2022-12-18T08:52:00;54.97;;;21.63;;
42084;SDS011;27746;52.228;20.890;2022-12-18T08:54:28;54.55;;;22.40;;
42084;SDS011;27746;52.228;20.890;2022-12-18T08:56:55;50.55;;;22.30;;
42084;SDS011;27746;52.228;20.890;2022-12-18T08:59:22;49.03;;;22.15;;
42084;SDS011;27746;52.228;20.890;2022-12-18T09:01:49;50.05;;;19.88;;
42084;SDS011;27746;52.228;20.890;2022-12-18T09:04:16;53.10;;;22.10;;
42084;SDS011;27746;52.228;20.890;2022-12-18T09:06:44;54.67;;;22.58;;
42084;SDS011;27746;52.228;20.890;2022-12-18T09:09:11;48.97;;;22.48;;
42084;SDS011;27746;52.228;20.890;2022-12-18T09:11:38;55.92;;;23.58;;
42084;SDS011;27746;52.228;20.890;2022-12-18T09:14:05;58.60;;;22.83;;
42084;SDS011;27746;52.228;20.890;2022-12-18T09:16:32;58.70;;;24.02;;
42084;SDS011;27746;52.228;20.890;2022-12-18T09:19:00;53.25;;;22.40;;
42084;SDS011;27746;52.228;20.890;2022-12-18T09:21:28;48.33;;;21.50;;
42084;SDS011;27746;52.228;20.890;2022-12-18T09:23:58;44.13;;;21.13;;
42084;SDS011;27746;52.228;20.890;2022-12-18T09:26:25;52.00;;;22.77;;
42084;SDS011;27746;52.228;20.890;2022-12-18T09:28:53;58.58;;;25.35;;
42084;SDS011;27746;52.228;20.890;2022-12-18T09:31:21;57.25;;;24.40;;
42084;SDS011;27746;52.228;20.890;2022-12-18T09:33:49;55.25;;;25.80;;
42084;SDS011;27746;52.228;20.890;2022-12-18T09:36:16;53.90;;;23.63;;
42084;SDS011;27746;52.228;20.890;2022-12-18T09:38:44;58.22;;;25.50;;
42084;SDS011;27746;52.228;20.890;2022-12-18T09:41:17;63.95;;;25.13;;
42084;SDS011;27746;52.228;20.890;2022-12-18T09:43:58;60.40;;;24.77;;
42084;SDS011;27746;52.228;20.890;2022-12-18T09:46:30;52.10;;;25.05;;
42084;SDS011;27746;52.228;20.890;2022-12-18T09:49:00;55.78;;;24.35;;
42084;SDS011;27746;52.228;20.890;2022-12-18T09:51:33;54.75;;;23.80;;
42084;SDS011;27746;52.228;20.890;2022-12-18T09:54:06;48.85;;;21.88;;
42084;SDS011;27746;52.228;20.890;2022-12-18T09:56:40;57.90;;;24.55;;
42084;SDS011;27746;52.228;20.890;2022-12-18T09:59:14;61.88;;;25.20;;
42084;SDS011;27746;52.228;20.890;2022-12-18T10:01:47;56.40;;;23.70;;
42084;SDS011;27746;52.228;20.890;2022-12-18T10:04:14;54.38;;;23.15;;
42084;SDS011;27746;52.228;20.890;2022-12-18T10:06:43;58.92;;;24.98;;
42084;SDS011;27746;52.228;20.890;2022-12-18T10:09:18;57.58;;;24.33;;
42084;SDS011;27746;52.228;20.890;2022-12-18T10:11:55;58.30;;;24.38;;
42084;SDS011;27746;52.228;20.890;2022-12-18T10:14:30;53.55;;;24.15;;
42084;SDS011;27746;52.228;20.890;2022-12-18T10:17:03;56.90;;;25.02;;
42084;SDS011;27746;52.228;20.890;2022-12-18T10:19:41;58.55;;;23.67;;
42084;SDS011;27746;52.228;20.890;2022-12-18T10:22:18;59.63;;;25.35;;
42084;SDS011;27746;52.228;20.890;2022-12-18T10:24:53;57.45;;;22.63;;
42084;SDS011;27746;52.228;20.890;2022-12-18T10:27:27;63.63;;;26.20;;
42084;SDS011;27746;52.228;20.890;2022-12-18T10:29:55;61.97;;;26.90;;
42084;SDS011;27746;52.228;20.890;2022-12-18T10:32:23;63.85;;;27.13;;
42084;SDS011;27746;52.228;20.890;2022-12-18T10:34:53;60.33;;;23.83;;
42084;SDS011;27746;52.228;20.890;2022-12-18T10:37:23;53.97;;;23.52;;
42084;SDS011;27746;52.228;20.890;2022-12-18T10:40:06;75.10;;;27.75;;
42084;SDS011;27746;52.228;20.890;2022-12-18T10:42:37;60.00;;;24.48;;
42084;SDS011;27746;52.228;20.890;2022-12-18T10:45:11;67.28;;;26.70;;
42084;SDS011;27746;52.228;20.890;2022-12-18T10:47:41;61.35;;;26.48;;
42084;SDS011;27746;52.228;20.890;2022-12-18T10:50:17;63.17;;;26.88;;
42084;SDS011;27746;52.228;20.890;2022-12-18T10:52:57;63.28;;;26.70;;
42084;SDS011;27746;52.228;20.890;2022-12-18T10:55:25;67.25;;;27.38;;
42084;SDS011;27746;52.228;20.890;2022-12-18T10:57:57;63.88;;;25.70;;
42084;SDS011;27746;52.228;20.890;2022-12-18T11:00:42;60.60;;;24.25;;
42084;SDS011;27746;52.228;20.890;2022-12-18T11:03:28;71.57;;;29.50;;
42084;SDS011;27746;52.228;20.890;2022-12-18T11:06:01;66.63;;;27.27;;
42084;SDS011;27746;52.228;20.890;2022-12-18T11:08:29;63.30;;;26.08;;
42084;SDS011;27746;52.228;20.890;2022-12-18T11:10:56;65.22;;;25.80;;
42084;SDS011;27746;52.228;20.890;2022-12-18T11:13:25;57.25;;;24.50;;
42084;SDS011;27746;52.228;20.890;2022-12-18T11:15:53;60.50;;;27.15;;
42084;SDS011;27746;52.228;20.890;2022-12-18T11:18:22;68.18;;;28.73;;
42084;SDS011;27746;52.228;20.890;2022-12-18T11:20:54;69.03;;;27.65;;
42084;SDS011;27746;52.228;20.890;2022-12-18T11:23:23;66.63;;;28.20;;
42084;SDS011;27746;52.228;20.890;2022-12-18T11:25:52;66.70;;;27.85;;
42084;SDS011;27746;52.228;20.890;2022-12-18T11:28:27;69.57;;;27.75;;
42084;SDS011;27746;52.228;20.890;2022-12-18T11:31:16;62.92;;;26.95;;
42084;SDS011;27746;52.228;20.890;2022-12-18T11:33:50;61.33;;;25.13;;
42084;SDS011;27746;52.228;20.890;2022-12-18T11:36:22;57.83;;;24.55;;
42084;SDS011;27746;52.228;20.890;2022-12-18T11:38:49;63.85;;;26.13;;
42084;SDS011;27746;52.228;20.890;2022-12-18T11:41:21;65.40;;;25.70;;
42084;SDS011;27746;52.228;20.890;2022-12-18T11:44:14;65.20;;;26.27;;
42084;SDS011;27746;52.228;20.890;2022-12-18T11:46:47;65.68;;;28.10;;
42084;SDS011;27746;52.228;20.890;2022-12-18T11:49:18;63.53;;;26.27;;
42084;SDS011;27746;52.228;20.890;2022-12-18T11:51:49;69.50;;;30.27;;
42084;SDS011;27746;52.228;20.890;2022-12-18T11:54:21;71.43;;;28.55;;
42084;SDS011;27746;52.228;20.890;2022-12-18T11:56:49;65.82;;;27.67;;
42084;SDS011;27746;52.228;20.890;2022-12-18T11:59:23;58.83;;;27.00;;
42084;SDS011;27746;52.228;20.890;2022-12-18T12:01:58;67.88;;;27.35;;
42084;SDS011;27746;52.228;20.890;2022-12-18T12:04:38;63.78;;;27.10;;
42084;SDS011;27746;52.228;20.890;2022-12-18T12:07:25;66.72;;;28.70;;
42084;SDS011;27746;52.228;20.890;2022-12-18T12:10:05;58.15;;;26.25;;
42084;SDS011;27746;52.228;20.890;2022-12-18T12:12:47;55.15;;;25.10;;
42084;SDS011;27746;52.228;20.890;2022-12-18T12:15:28;61.97;;;25.67;;
42084;SDS011;27746;52.228;20.890;2022-12-18T12:18:08;51.25;;;22.65;;
42084;SDS011;27746;52.228;20.890;2022-12-18T12:20:46;62.30;;;25.83;;
42084;SDS011;27746;52.228;20.890;2022-12-18T12:23:20;60.40;;;24.50;;
42084;SDS011;27746;52.228;20.890;2022-12-18T12:25:57;65.90;;;25.25;;
42084;SDS011;27746;52.228;20.890;2022-12-18T12:28:33;61.78;;;28.30;;
42084;SDS011;27746;52.228;20.890;2022-12-18T12:31:27;63.25;;;25.40;;
42084;SDS011;27746;52.228;20.890;2022-12-18T12:34:15;65.63;;;24.55;;
42084;SDS011;27746;52.228;20.890;2022-12-18T12:36:49;56.60;;;23.73;;
42084;SDS011;27746;52.228;20.890;2022-12-18T12:39:27;56.38;;;24.58;;
42084;SDS011;27746;52.228;20.890;2022-12-18T12:41:57;53.67;;;23.27;;
42084;SDS011;27746;52.228;20.890;2022-12-18T12:44:43;57.78;;;23.15;;
42084;SDS011;27746;52.228;20.890;2022-12-18T12:47:18;61.75;;;23.55;;
42084;SDS011;27746;52.228;20.890;2022-12-18T12:49:49;52.60;;;23.83;;
42084;SDS011;27746;52.228;20.890;2022-12-18T12:52:18;56.22;;;22.50;;
42084;SDS011;27746;52.228;20.890;2022-12-18T12:54:53;56.30;;;23.27;;
42084;SDS011;27746;52.228;20.890;2022-12-18T12:57:21;51.70;;;23.13;;
42084;SDS011;27746;52.228;20.890;2022-12-18T12:59:57;48.40;;;20.35;;
42084;SDS011;27746;52.228;20.890;2022-12-18T13:02:31;54.17;;;22.27;;
42084;SDS011;27746;52.228;20.890;2022-12-18T13:05:06;56.05;;;22.55;;
42084;SDS011;27746;52.228;20.890;2022-12-18T13:07:44;61.67;;;25.15;;
42084;SDS011;27746;52.228;20.890;2022-12-18T13:10:26;57.03;;;23.60;;
42084;SDS011;27746;52.228;20.890;2022-12-18T13:13:01;62.90;;;25.77;;
42084;SDS011;27746;52.228;20.890;2022-12-18T13:15:31;63.80;;;25.00;;
42084;SDS011;27746;52.228;20.890;2022-12-18T13:20:35;57.53;;;23.02;;
42084;SDS011;27746;52.228;20.890;2022-12-18T13:23:18;70.63;;;25.65;;
42084;SDS011;27746;52.228;20.890;2022-12-18T13:25:53;63.67;;;24.55;;
42084;SDS011;27746;52.228;20.890;2022-12-18T13:28:21;60.80;;;23.20;;
42084;SDS011;27746;52.228;20.890;2022-12-18T13:30:54;64.22;;;25.58;;
42084;SDS011;27746;52.228;20.890;2022-12-18T13:36:35;64.13;;;26.92;;
42084;SDS011;27746;52.228;20.890;2022-12-18T13:41:49;61.83;;;26.88;;
42084;SDS011;27746;52.228;20.890;2022-12-18T13:44:22;63.45;;;24.65;;
42084;SDS011;27746;52.228;20.890;2022-12-18T13:46:52;63.80;;;26.13;;
42084;SDS011;27746;52.228;20.890;2022-12-18T13:49:22;62.85;;;26.42;;
42084;SDS011;27746;52.228;20.890;2022-12-18T13:51:52;64.28;;;25.70;;
42084;SDS011;27746;52.228;20.890;2022-12-18T13:54:22;65.20;;;27.67;;
42084;SDS011;27746;52.228;20.890;2022-12-18T13:56:54;61.08;;;26.55;;
42084;SDS011;27746;52.228;20.890;2022-12-18T13:59:22;62.30;;;26.25;;
42084;SDS011;27746;52.228;20.890;2022-12-18T14:01:51;67.10;;;26.88;;
42084;SDS011;27746;52.228;20.890;2022-12-18T14:04:23;69.95;;;31.67;;
42084;SDS011;27746;52.228;20.890;2022-12-18T14:06:53;85.18;;;33.42;;
42084;SDS011;27746;52.228;20.890;2022-12-18T14:09:25;66.85;;;28.30;;
42084;SDS011;27746;52.228;20.890;2022-12-18T14:11:53;73.60;;;27.58;;
42084;SDS011;27746;52.228;20.890;2022-12-18T14:14:43;72.45;;;26.80;;
42084;SDS011;27746;52.228;20.890;2022-12-18T14:17:13;64.45;;;26.63;;
42084;SDS011;27746;52.228;20.890;2022-12-18T14:19:43;64.25;;;27.38;;
42084;SDS011;27746;52.228;20.890;2022-12-18T14:22:15;71.38;;;26.85;;
42084;SDS011;27746;52.228;20.890;2022-12-18T14:24:43;61.35;;;25.10;;
42084;SDS011;27746;52.228;20.890;2022-12-18T14:27:20;71.95;;;27.83;;
42084;SDS011;27746;52.228;20.890;2022-12-18T14:29:48;66.30;;;26.15;;
42084;SDS011;27746;52.228;20.890;2022-12-18T14:32:16;61.35;;;24.70;;
42084;SDS011;27746;52.228;20.890;2022-12-18T14:34:47;66.82;;;26.35;;
42084;SDS011;27746;52.228;20.890;2022-12-18T14:37:15;59.78;;;23.48;;
42084;SDS011;27746;52.228;20.890;2022-12-18T14:39:57;57.35;;;23.83;;
42084;SDS011;27746;52.228;20.890;2022-12-18T14:42:25;60.47;;;24.50;;